Time;durP1;ratioP1;P1;durP2;ratioP2;P2;SDS_P1;SDS_P2;PMS_P1;PMS_P2;Temp;Humidity;BMP_temperature;BMP_pressure;BME280_temperature;BME280_humidity;BME280_pressure;Samples;Min_cycle;Max_cycle;Signal;HPM_P1;HPM_P2
2023/07/01 00:02:25;;;;;;;10.85;7.20;;;20.50;71.40;;;;;;5074041;28;20033;-85
2023/07/01 00:04:52;;;;;;;10.07;7.65;;;20.40;72.00;;;;;;5073744;28;20036;-84
2023/07/01 00:07:22;;;;;;;10.20;8.03;;;20.40;72.10;;;;;;5060225;28;20525;-90
2023/07/01 00:09:49;;;;;;;12.80;8.10;;;20.40;72.40;;;;;;5059530;28;20054;-90
2023/07/01 00:12:16;;;;;;;10.80;7.85;;;20.40;72.30;;;;;;5059817;28;20037;-90
2023/07/01 00:14:43;;;;;;;12.25;8.80;;;20.30;72.30;;;;;;5059625;28;20036;-90
2023/07/01 00:17:12;;;;;;;12.27;8.63;;;20.40;72.60;;;;;;5076495;28;20044;-90
2023/07/01 00:19:39;;;;;;;12.30;8.53;;;20.40;72.80;;;;;;5059595;28;20076;-90
2023/07/01 00:22:06;;;;;;;13.32;8.18;;;20.50;72.90;;;;;;5076631;28;20094;-90
2023/07/01 00:24:34;;;;;;;10.23;7.70;;;20.40;73.20;;;;;;5060294;28;20064;-90
2023/07/01 00:27:01;;;;;;;12.40;8.68;;;20.40;73.00;;;;;;5073306;28;20094;-84
2023/07/01 00:29:28;;;;;;;14.02;9.45;;;20.40;73.20;;;;;;5056703;28;20132;-84
2023/07/01 00:31:55;;;;;;;11.93;8.77;;;20.40;73.70;;;;;;5061512;28;20045;-85
2023/07/01 00:34:23;;;;;;;11.15;8.07;;;20.40;73.90;;;;;;5070048;28;20051;-85
2023/07/01 00:36:50;;;;;;;10.38;7.80;;;20.40;74.00;;;;;;5056704;28;20074;-85
2023/07/01 00:39:17;;;;;;;12.38;9.38;;;20.40;74.30;;;;;;5056687;28;20429;-85
2023/07/01 00:41:51;;;;;;;12.27;8.80;;;20.30;74.50;;;;;;5073563;28;20509;-84
2023/07/01 00:44:18;;;;;;;9.87;8.27;;;20.30;74.80;;;;;;5072987;28;20048;-85
2023/07/01 00:46:45;;;;;;;11.77;7.95;;;20.30;75.00;;;;;;5056610;28;20096;-84
2023/07/01 00:49:13;;;;;;;13.23;9.07;;;20.30;75.00;;;;;;5072732;28;20040;-85
2023/07/01 00:51:40;;;;;;;11.52;9.68;;;20.30;74.70;;;;;;5056403;28;20055;-84
2023/07/01 00:54:07;;;;;;;12.38;9.32;;;20.30;74.40;;;;;;5072787;28;20056;-84
2023/07/01 00:56:34;;;;;;;12.60;9.60;;;20.30;74.40;;;;;;5056167;28;20486;-84
2023/07/01 00:59:01;;;;;;;12.02;8.98;;;20.30;74.80;;;;;;5072713;28;20143;-84
2023/07/01 01:01:38;;;;;;;11.98;8.80;;;20.20;75.20;;;;;;5072530;28;20047;-84
2023/07/01 01:04:16;;;;;;;13.18;10.25;;;20.20;75.10;;;;;;5070522;28;20033;-84
2023/07/01 01:07:00;;;;;;;14.27;9.93;;;20.10;75.20;;;;;;5070870;28;20025;-84
2023/07/01 01:09:38;;;;;;;14.43;10.40;;;20.20;75.40;;;;;;5072427;28;20048;-84
2023/07/01 01:12:08;;;;;;;12.13;9.50;;;20.20;75.60;;;;;;5072348;28;20040;-84
2023/07/01 01:14:38;;;;;;;13.45;10.25;;;20.10;75.80;;;;;;5060557;28;20110;-84
2023/07/01 01:17:13;;;;;;;14.68;10.23;;;20.20;75.70;;;;;;5071364;28;20047;-84
2023/07/01 01:19:58;;;;;;;14.25;11.07;;;20.20;76.00;;;;;;5072265;28;21264;-84
2023/07/01 01:22:37;;;;;;;13.87;10.63;;;20.10;76.30;;;;;;5055842;28;20452;-84
2023/07/01 01:25:29;;;;;;;13.35;10.80;;;20.10;76.20;;;;;;5072416;28;20120;-84
2023/07/01 01:27:58;;;;;;;13.98;10.02;;;20.10;76.00;;;;;;5069389;28;20098;-83
2023/07/01 01:30:31;;;;;;;12.45;9.57;;;20.10;75.90;;;;;;5072054;28;20048;-84
2023/07/01 01:32:59;;;;;;;12.95;10.35;;;20.20;75.70;;;;;;5055459;28;20089;-84
2023/07/01 01:35:27;;;;;;;14.20;10.63;;;20.10;75.80;;;;;;5055495;28;20054;-84
2023/07/01 01:38:00;;;;;;;12.82;10.95;;;20.10;75.90;;;;;;5073184;28;20048;-84
2023/07/01 01:40:35;;;;;;;13.30;10.50;;;20.10;76.10;;;;;;5055495;28;20044;-84
2023/07/01 01:43:14;;;;;;;14.07;11.10;;;20.10;76.30;;;;;;5071857;28;20119;-84
2023/07/01 01:45:43;;;;;;;13.68;10.93;;;20.10;76.40;;;;;;5072169;28;20071;-84
2023/07/01 01:48:11;;;;;;;13.83;11.50;;;20.00;76.40;;;;;;5061963;28;20065;-85
2023/07/01 01:50:40;;;;;;;16.92;13.38;;;20.00;76.50;;;;;;5071728;28;20072;-84
2023/07/01 01:53:10;;;;;;;14.95;12.60;;;20.00;76.80;;;;;;5071648;28;20045;-84
2023/07/01 01:55:39;;;;;;;15.65;12.90;;;20.00;77.10;;;;;;5054904;28;20036;-84
2023/07/01 01:58:07;;;;;;;18.02;13.52;;;20.00;77.20;;;;;;5058262;28;20039;-84
2023/07/01 02:00:35;;;;;;;15.67;12.37;;;19.90;77.30;;;;;;5054923;28;20571;-85
2023/07/01 02:03:02;;;;;;;15.18;13.23;;;19.90;77.30;;;;;;5051386;28;20053;-84
2023/07/01 02:05:30;;;;;;;17.88;13.68;;;19.90;77.50;;;;;;5055066;28;20056;-84
2023/07/01 02:08:01;;;;;;;18.52;12.90;;;19.90;77.50;;;;;;5071330;28;20502;-84
2023/07/01 02:10:30;;;;;;;14.50;11.57;;;19.90;77.90;;;;;;5062630;28;20048;-84
2023/07/01 02:12:57;;;;;;;15.47;12.73;;;19.90;78.00;;;;;;5060844;28;20047;-85
2023/07/01 02:15:24;;;;;;;16.38;13.38;;;19.90;78.20;;;;;;5071369;28;20045;-84
2023/07/01 02:17:55;;;;;;;19.00;13.00;;;19.80;78.40;;;;;;5055277;28;20036;-85
2023/07/01 02:20:23;;;;;;;17.85;13.02;;;19.80;78.50;;;;;;5072523;28;20037;-84
2023/07/01 02:22:50;;;;;;;15.70;13.18;;;19.70;78.70;;;;;;5070801;28;20044;-84
2023/07/01 02:25:17;;;;;;;17.67;12.87;;;19.70;78.60;;;;;;5104833;28;20444;-84
2023/07/01 02:27:44;;;;;;;16.10;13.00;;;19.70;78.40;;;;;;5070994;28;20037;-84
2023/07/01 02:30:11;;;;;;;17.52;12.77;;;19.70;78.50;;;;;;5071170;28;20440;-85
2023/07/01 02:32:38;;;;;;;15.80;12.48;;;19.70;78.60;;;;;;5062050;28;20500;-84
2023/07/01 02:35:06;;;;;;;16.08;12.38;;;19.80;78.50;;;;;;5052268;28;20045;-84
2023/07/01 02:37:33;;;;;;;16.40;13.73;;;19.70;78.50;;;;;;5054696;28;20049;-85
2023/07/01 02:40:00;;;;;;;16.65;14.18;;;19.60;78.70;;;;;;5072395;28;20072;-84
2023/07/01 02:42:27;;;;;;;15.90;13.70;;;19.60;79.10;;;;;;5054523;28;20053;-84
2023/07/01 02:44:54;;;;;;;16.02;14.05;;;19.50;79.10;;;;;;5067145;28;20486;-84
2023/07/01 02:47:21;;;;;;;17.75;15.13;;;19.50;79.00;;;;;;5070953;28;20041;-84
2023/07/01 02:49:49;;;;;;;20.03;16.67;;;19.50;79.30;;;;;;5053139;28;20050;-84
2023/07/01 02:52:17;;;;;;;19.90;14.95;;;19.50;79.50;;;;;;5054456;28;20040;-84
2023/07/01 02:54:44;;;;;;;15.98;14.02;;;19.40;79.80;;;;;;5054135;28;20056;-84
2023/07/01 02:57:11;;;;;;;17.80;14.38;;;19.30;80.10;;;;;;5058877;28;20410;-84
2023/07/01 02:59:38;;;;;;;18.63;13.48;;;19.30;80.10;;;;;;5054318;28;20052;-85
2023/07/01 03:02:06;;;;;;;18.33;14.37;;;19.30;80.10;;;;;;5054362;28;20086;-83
2023/07/01 03:04:34;;;;;;;17.10;14.18;;;19.30;80.00;;;;;;5070924;28;20139;-84
2023/07/01 03:07:01;;;;;;;19.92;15.48;;;19.30;80.20;;;;;;5087795;28;20094;-85
2023/07/01 03:09:29;;;;;;;23.70;16.90;;;19.30;80.40;;;;;;5070849;28;20106;-84
2023/07/01 03:11:56;;;;;;;20.13;16.63;;;19.20;80.80;;;;;;5050342;28;20037;-84
2023/07/01 03:14:23;;;;;;;19.47;15.53;;;19.10;81.10;;;;;;5054152;28;20375;-84
2023/07/01 03:16:52;;;;;;;23.58;17.50;;;19.10;81.40;;;;;;5069363;28;20398;-84
2023/07/01 03:19:20;;;;;;;21.45;16.83;;;19.00;81.70;;;;;;5059119;28;20125;-84
2023/07/01 03:21:47;;;;;;;22.25;16.95;;;19.00;81.90;;;;;;5070034;28;20037;-84
2023/07/01 03:24:15;;;;;;;22.77;18.67;;;19.10;81.50;;;;;;5070425;28;20040;-84
2023/07/01 03:26:43;;;;;;;23.67;17.90;;;19.10;81.90;;;;;;5070921;28;20072;-84
2023/07/01 03:29:10;;;;;;;19.92;16.55;;;19.00;82.00;;;;;;5054087;28;20045;-84
2023/07/01 03:31:37;;;;;;;17.77;15.48;;;19.00;81.90;;;;;;5059676;28;20409;-84
2023/07/01 03:34:04;;;;;;;19.55;15.70;;;19.00;82.00;;;;;;5070427;28;20045;-84
2023/07/01 03:36:31;;;;;;;23.02;17.83;;;19.10;81.80;;;;;;5057543;28;20514;-85
2023/07/01 03:38:58;;;;;;;23.00;16.23;;;19.10;81.80;;;;;;5074268;28;20464;-85
2023/07/01 03:41:26;;;;;;;23.73;18.33;;;19.10;81.70;;;;;;5057665;28;20464;-84
2023/07/01 03:43:53;;;;;;;22.48;16.67;;;19.10;81.80;;;;;;5074210;28;20047;-85
2023/07/01 03:46:20;;;;;;;26.83;19.98;;;19.10;81.90;;;;;;5057973;28;20051;-84
2023/07/01 03:48:47;;;;;;;21.40;16.52;;;19.10;81.90;;;;;;5057517;28;20068;-84
2023/07/01 03:51:15;;;;;;;20.93;16.60;;;19.10;81.80;;;;;;5074017;28;20036;-85
2023/07/01 03:53:42;;;;;;;19.98;16.50;;;19.10;81.70;;;;;;5074103;28;20482;-85
2023/07/01 03:56:09;;;;;;;24.13;17.00;;;19.10;81.60;;;;;;5057203;28;20037;-84
2023/07/01 03:58:36;;;;;;;24.60;18.88;;;19.10;81.90;;;;;;5061147;28;20045;-84
2023/07/01 04:01:05;;;;;;;23.17;18.23;;;19.10;82.00;;;;;;5074186;28;20517;-84
2023/07/01 04:03:34;;;;;;;24.23;19.97;;;19.20;81.90;;;;;;5057374;28;20407;-84
2023/07/01 04:06:01;;;;;;;22.08;18.77;;;19.10;82.20;;;;;;5073684;28;20048;-84
2023/07/01 04:08:28;;;;;;;25.08;19.00;;;19.10;82.10;;;;;;5065783;28;20145;-85
2023/07/01 04:10:56;;;;;;;22.58;18.05;;;19.10;82.20;;;;;;5073929;28;20097;-85
2023/07/01 04:13:27;;;;;;;21.80;16.73;;;19.00;82.30;;;;;;5057684;28;20110;-85
2023/07/01 04:15:54;;;;;;;20.57;15.63;;;19.00;82.50;;;;;;5057115;28;20135;-84
2023/07/01 04:18:21;;;;;;;19.63;16.08;;;19.00;82.30;;;;;;5057076;28;20406;-85
2023/07/01 04:20:49;;;;;;;25.02;18.70;;;19.10;82.00;;;;;;5057236;28;20057;-85
2023/07/01 04:23:16;;;;;;;23.98;19.25;;;19.10;81.90;;;;;;5073355;28;20548;-84
2023/07/01 04:25:43;;;;;;;19.95;16.15;;;19.10;82.10;;;;;;5057122;28;20068;-85
2023/07/01 04:28:10;;;;;;;21.77;16.93;;;19.10;81.80;;;;;;5057058;28;20037;-84
2023/07/01 04:30:37;;;;;;;20.05;16.48;;;19.20;81.70;;;;;;5073550;28;20040;-85
2023/07/01 04:33:04;;;;;;;23.02;18.30;;;19.20;81.50;;;;;;5073388;28;20059;-85
2023/07/01 04:35:33;;;;;;;22.65;16.58;;;19.20;81.70;;;;;;5062607;28;20135;-85
2023/07/01 04:38:00;;;;;;;24.95;18.08;;;19.10;81.90;;;;;;5083404;28;20398;-85
2023/07/01 04:40:27;;;;;;;19.97;17.07;;;19.10;82.00;;;;;;5073265;28;20135;-85
2023/07/01 04:42:54;;;;;;;21.10;16.80;;;19.10;82.00;;;;;;5073478;28;20490;-85
2023/07/01 04:45:21;;;;;;;22.50;18.30;;;19.20;81.80;;;;;;5056379;28;20044;-85
2023/07/01 04:47:49;;;;;;;21.95;18.00;;;19.30;81.60;;;;;;5056556;28;20494;-85
2023/07/01 04:50:16;;;;;;;20.30;17.10;;;19.30;81.30;;;;;;5073171;28;20036;-85
2023/07/01 04:52:43;;;;;;;22.10;17.47;;;19.20;81.40;;;;;;5058001;28;20079;-89
2023/07/01 04:55:11;;;;;;;24.58;17.83;;;19.30;81.50;;;;;;5073455;28;20041;-88
2023/07/01 04:57:38;;;;;;;23.98;18.10;;;19.30;81.60;;;;;;5073545;28;21794;-88
2023/07/01 05:00:09;;;;;;;22.48;18.35;;;19.20;81.80;;;;;;5073310;28;20045;-88
2023/07/01 05:02:37;;;;;;;22.45;17.50;;;19.10;81.60;;;;;;5056769;28;20040;-89
2023/07/01 05:05:04;;;;;;;24.53;19.03;;;19.10;82.00;;;;;;5057865;28;20410;-89
2023/07/01 05:07:32;;;;;;;20.02;16.63;;;19.10;81.90;;;;;;5089293;28;20406;-88
2023/07/01 05:09:59;;;;;;;24.85;18.67;;;19.10;82.00;;;;;;5059002;28;20123;-88
2023/07/01 05:12:26;;;;;;;24.55;18.88;;;19.10;82.20;;;;;;5071273;28;20041;-88
2023/07/01 05:14:55;;;;;;;24.08;18.27;;;19.00;82.30;;;;;;5073845;28;20044;-88
2023/07/01 05:17:22;;;;;;;24.23;18.50;;;19.10;82.30;;;;;;5073122;28;20040;-88
2023/07/01 05:19:49;;;;;;;25.50;19.08;;;19.10;82.20;;;;;;5057309;28;20044;-88
2023/07/01 05:22:16;;;;;;;22.58;17.88;;;19.00;82.30;;;;;;5056973;28;20048;-88
2023/07/01 05:24:43;;;;;;;25.52;19.23;;;19.00;82.70;;;;;;5072627;28;20791;-88
2023/07/01 05:27:10;;;;;;;25.90;19.48;;;19.00;82.70;;;;;;5072840;28;20043;-88
2023/07/01 05:29:37;;;;;;;24.27;18.43;;;19.00;82.50;;;;;;5073243;28;20528;-88
2023/07/01 05:32:04;;;;;;;20.80;17.45;;;19.10;82.40;;;;;;5072620;28;20048;-88
2023/07/01 05:34:31;;;;;;;24.35;18.30;;;19.20;82.30;;;;;;5057759;28;20410;-88
2023/07/01 05:36:59;;;;;;;22.75;17.25;;;19.20;82.00;;;;;;5061928;28;20040;-88
2023/07/01 05:39:29;;;;;;;24.83;19.83;;;19.20;82.10;;;;;;5056667;28;20055;-88
2023/07/01 05:41:56;;;;;;;26.90;20.97;;;19.20;81.90;;;;;;5072560;28;20040;-88
2023/07/01 05:44:25;;;;;;;25.90;19.13;;;19.30;82.00;;;;;;5056962;28;20044;-87
2023/07/01 05:46:55;;;;;;;25.48;20.40;;;19.30;82.10;;;;;;5072361;28;20044;-88
2023/07/01 05:49:22;;;;;;;24.15;18.40;;;19.20;82.30;;;;;;5072407;28;20033;-88
2023/07/01 05:51:50;;;;;;;23.77;18.88;;;19.20;82.30;;;;;;5058753;28;20040;-89
2023/07/01 05:54:17;;;;;;;25.33;17.70;;;19.20;82.20;;;;;;5072782;28;20041;-88
2023/07/01 05:56:44;;;;;;;22.30;16.00;;;19.10;82.40;;;;;;5055524;28;20052;-88
2023/07/01 05:59:13;;;;;;;20.55;16.02;;;19.20;82.10;;;;;;5056404;28;20045;-89
2023/07/01 06:01:40;;;;;;;21.45;17.33;;;19.30;81.80;;;;;;5056592;28;20090;-88
2023/07/01 06:04:07;;;;;;;23.90;18.55;;;19.40;81.90;;;;;;5063604;28;20402;-89
2023/07/01 06:06:34;;;;;;;22.03;17.57;;;19.50;82.10;;;;;;5056024;28;20106;-89
2023/07/01 06:09:01;;;;;;;23.73;18.35;;;19.50;82.30;;;;;;5072628;28;20080;-88
2023/07/01 06:11:29;;;;;;;22.40;17.65;;;19.50;82.00;;;;;;5072066;28;20108;-88
2023/07/01 06:13:56;;;;;;;25.52;18.80;;;19.50;82.00;;;;;;5072012;28;20399;-88
2023/07/01 06:16:23;;;;;;;26.52;20.30;;;19.50;81.80;;;;;;5071738;28;20367;-89
2023/07/01 06:18:50;;;;;;;30.93;21.83;;;19.50;81.50;;;;;;5072013;28;20040;-88
2023/07/01 06:21:19;;;;;;;24.17;18.42;;;19.50;81.60;;;;;;5072346;28;20457;-89
2023/07/01 06:23:46;;;;;;;19.95;16.02;;;19.50;81.60;;;;;;5070600;28;20032;-89
2023/07/01 06:26:13;;;;;;;23.30;18.77;;;19.50;81.50;;;;;;5055717;28;20041;-84
2023/07/01 06:28:43;;;;;;;22.13;17.10;;;19.60;81.70;;;;;;5071141;28;20410;-85
2023/07/01 06:31:10;;;;;;;23.53;18.80;;;19.60;81.30;;;;;;5071727;28;20405;-85
2023/07/01 06:33:41;;;;;;;24.33;18.85;;;19.60;81.40;;;;;;5071457;28;20044;-85
2023/07/01 06:36:08;;;;;;;24.67;18.98;;;19.70;81.30;;;;;;5054928;28;20383;-84
2023/07/01 06:38:35;;;;;;;25.90;20.30;;;19.70;81.50;;;;;;5054970;28;20048;-85
2023/07/01 06:41:02;;;;;;;25.30;20.23;;;19.60;81.60;;;;;;5055188;28;20135;-88
2023/07/01 06:43:29;;;;;;;24.90;19.50;;;19.70;81.30;;;;;;5055298;28;20047;-88
2023/07/01 06:45:57;;;;;;;26.85;19.33;;;19.60;81.20;;;;;;5072245;28;20040;-89
2023/07/01 06:48:24;;;;;;;25.42;20.50;;;19.60;81.40;;;;;;5071515;28;20032;-88
2023/07/01 06:50:52;;;;;;;25.73;20.50;;;19.70;81.50;;;;;;5071622;28;20043;-88
2023/07/01 06:53:19;;;;;;;22.42;18.55;;;19.70;81.70;;;;;;5065726;28;20137;-88
2023/07/01 06:55:46;;;;;;;24.13;19.10;;;19.80;81.50;;;;;;5071312;28;20068;-89
2023/07/01 06:58:13;;;;;;;25.35;19.58;;;19.80;81.20;;;;;;5063566;28;20051;-89
2023/07/01 07:00:40;;;;;;;24.83;19.70;;;19.80;81.70;;;;;;5055389;28;20045;-89
2023/07/01 07:03:07;;;;;;;25.42;18.88;;;19.80;81.70;;;;;;5056916;28;20409;-89
2023/07/01 07:05:34;;;;;;;26.08;20.48;;;19.80;81.50;;;;;;5064611;28;20033;-88
2023/07/01 07:08:04;;;;;;;27.67;20.17;;;19.90;81.60;;;;;;5089291;28;20270;-89
2023/07/01 07:10:31;;;;;;;25.05;20.00;;;19.90;81.30;;;;;;5069001;28;20055;-89
2023/07/01 07:12:58;;;;;;;25.70;20.30;;;19.90;81.30;;;;;;5075802;28;20385;-88
2023/07/01 07:15:25;;;;;;;35.92;24.40;;;20.00;81.10;;;;;;5055548;28;20084;-89
2023/07/01 07:17:52;;;;;;;31.05;24.15;;;20.00;80.70;;;;;;5067636;28;20058;-88
2023/07/01 07:20:19;;;;;;;28.00;22.23;;;20.00;81.10;;;;;;5072852;28;20402;-89
2023/07/01 07:22:46;;;;;;;29.52;22.65;;;20.10;80.50;;;;;;5059097;28;20041;-94
2023/07/01 07:25:17;;;;;;;28.50;22.13;;;20.20;80.00;;;;;;5076449;28;20073;-91
2023/07/01 07:27:45;;;;;;;31.48;21.70;;;20.30;80.50;;;;;;5075242;28;20032;-87
2023/07/01 07:30:15;;;;;;;33.60;24.80;;;20.30;80.20;;;;;;5075252;28;20052;-90
2023/07/01 07:32:42;;;;;;;38.80;24.73;;;20.40;79.90;;;;;;5076167;28;20040;-90
2023/07/01 07:35:10;;;;;;;39.90;29.05;;;20.40;79.30;;;;;;5060372;28;20033;-90
2023/07/01 07:37:55;;;;;;;41.55;29.77;;;20.60;79.40;;;;;;5058082;28;20045;-90
2023/07/01 07:40:23;;;;;;;44.15;31.10;;;20.60;78.60;;;;;;5040698;28;20055;-90
2023/07/01 07:42:54;;;;;;;43.90;30.80;;;20.60;78.90;;;;;;5074161;28;20048;-90
2023/07/01 07:45:21;;;;;;;44.40;31.87;;;20.70;78.80;;;;;;5057696;28;20132;-90
2023/07/01 07:47:49;;;;;;;43.90;31.77;;;20.80;79.10;;;;;;5056673;28;20405;-89
2023/07/01 07:50:21;;;;;;;42.50;30.27;;;20.90;78.80;;;;;;5073915;28;20044;-94
2023/07/01 07:52:49;;;;;;;44.90;31.20;;;20.80;78.10;;;;;;5074711;28;20051;-90
2023/07/01 07:55:16;;;;;;;33.90;24.50;;;21.00;78.20;;;;;;5057758;28;20048;-91
2023/07/01 07:57:43;;;;;;;30.80;21.80;;;21.00;77.50;;;;;;5058390;28;20059;-92
2023/07/01 08:00:11;;;;;;;31.33;22.40;;;21.10;77.00;;;;;;5070896;28;20074;-87
2023/07/01 08:02:44;;;;;;;28.77;21.20;;;21.10;76.60;;;;;;5058035;28;20048;-88
2023/07/01 08:05:16;;;;;;;29.08;20.45;;;21.20;76.10;;;;;;5055020;28;20461;-88
2023/07/01 08:07:46;;;;;;;33.42;23.45;;;21.30;76.10;;;;;;5063090;28;20083;-88
2023/07/01 08:10:16;;;;;;;37.13;27.80;;;21.30;76.30;;;;;;5072365;28;20110;-92
2023/07/01 08:12:43;;;;;;;33.45;25.42;;;21.30;77.00;;;;;;5079879;28;20041;-92
2023/07/01 08:15:10;;;;;;;32.95;24.27;;;21.30;76.60;;;;;;5059145;28;20041;-92
2023/07/01 08:17:38;;;;;;;32.15;24.48;;;21.30;76.60;;;;;;5075768;28;20518;-91
2023/07/01 08:20:07;;;;;;;33.92;25.50;;;21.30;76.50;;;;;;5074691;28;20086;-92
2023/07/01 08:22:34;;;;;;;36.30;26.27;;;21.40;76.90;;;;;;5059310;28;20490;-92
2023/07/01 08:25:04;;;;;;;30.75;24.10;;;21.30;77.60;;;;;;5075481;28;20044;-88
2023/07/01 08:27:31;;;;;;;29.67;22.52;;;21.30;77.30;;;;;;5057415;28;20448;-86
2023/07/01 08:29:58;;;;;;;30.63;24.17;;;21.40;76.90;;;;;;5056869;28;20052;-86
2023/07/01 08:32:25;;;;;;;25.52;20.17;;;21.50;76.80;;;;;;5057041;28;20045;-86
2023/07/01 08:34:52;;;;;;;26.63;20.93;;;21.50;75.70;;;;;;5073470;28;20047;-86
2023/07/01 08:37:19;;;;;;;26.08;19.48;;;21.50;75.60;;;;;;5063757;28;20036;-87
2023/07/01 08:39:47;;;;;;;22.98;18.05;;;21.50;75.90;;;;;;5073556;28;20060;-86
2023/07/01 08:42:27;;;;;;;23.75;18.30;;;21.60;75.20;;;;;;5058250;28;20041;-85
2023/07/01 08:44:55;;;;;;;24.65;19.63;;;21.60;75.00;;;;;;5056529;28;20041;-86
2023/07/01 08:47:25;;;;;;;22.57;18.57;;;21.80;75.00;;;;;;5056723;28;20045;-86
2023/07/01 08:49:55;;;;;;;24.50;18.63;;;22.00;74.30;;;;;;5056930;28;20051;-86
2023/07/01 08:52:24;;;;;;;25.83;19.75;;;22.10;74.00;;;;;;5090103;28;20052;-86
2023/07/01 08:54:53;;;;;;;23.45;19.10;;;22.20;73.40;;;;;;5056691;28;20041;-87
2023/07/01 08:57:20;;;;;;;25.20;19.88;;;22.30;73.80;;;;;;5073950;28;20410;-88
2023/07/01 08:59:49;;;;;;;24.53;18.13;;;22.20;73.30;;;;;;5057452;28;20115;-89
2023/07/01 09:02:17;;;;;;;20.50;15.50;;;22.20;73.70;;;;;;5057156;28;20052;-88
2023/07/01 09:04:45;;;;;;;21.83;16.63;;;22.20;73.80;;;;;;5072752;28;20535;-87
2023/07/01 09:07:12;;;;;;;22.05;16.92;;;22.30;73.10;;;;;;5072929;28;20036;-87
2023/07/01 09:09:39;;;;;;;19.13;15.98;;;22.40;73.50;;;;;;5057815;28;20075;-86
2023/07/01 09:12:06;;;;;;;20.83;17.17;;;22.50;73.00;;;;;;5056161;28;20041;-87
2023/07/01 09:15:03;;;;;;;20.15;17.30;;;22.50;72.80;;;;;;5056240;28;20506;-87
2023/07/01 09:17:39;;;;;;;20.63;15.48;;;22.50;73.50;;;;;;5056562;28;20044;-87
2023/07/01 09:20:11;;;;;;;17.27;14.93;;;22.50;72.30;;;;;;5055848;28;20072;-88
2023/07/01 09:22:43;;;;;;;19.95;16.98;;;22.50;72.90;;;;;;5063106;28;20048;-87
2023/07/01 09:25:26;;;;;;;20.37;16.13;;;22.60;73.00;;;;;;5055613;28;20051;-87
2023/07/01 09:27:53;;;;;;;18.38;14.52;;;22.60;74.20;;;;;;5072576;28;20040;-87
2023/07/01 09:30:20;;;;;;;19.38;16.73;;;22.50;72.80;;;;;;5063416;28;20514;-87
2023/07/01 09:32:48;;;;;;;20.23;15.88;;;22.60;73.30;;;;;;5055937;28;20040;-88
2023/07/01 09:35:15;;;;;;;20.48;15.63;;;22.70;73.40;;;;;;5055685;28;20068;-87
2023/07/01 09:37:42;;;;;;;19.90;16.07;;;22.70;73.00;;;;;;5058063;28;20506;-87
2023/07/01 09:40:21;;;;;;;19.77;16.55;;;22.80;72.10;;;;;;5072382;28;20043;-86
2023/07/01 09:42:54;;;;;;;18.17;15.77;;;22.80;72.00;;;;;;5055356;28;20110;-87
2023/07/01 09:45:21;;;;;;;19.63;15.80;;;22.90;71.80;;;;;;5055898;28;20037;-87
2023/07/01 09:47:52;;;;;;;18.33;15.15;;;23.00;71.20;;;;;;5055719;28;20036;-87
2023/07/01 09:50:28;;;;;;;19.67;15.23;;;23.00;71.30;;;;;;5055252;28;20051;-87
2023/07/01 09:52:56;;;;;;;19.35;15.63;;;23.00;70.90;;;;;;5070981;28;20383;-87
2023/07/01 09:55:24;;;;;;;19.52;16.42;;;22.60;71.60;;;;;;5055626;28;20169;-87
2023/07/01 09:57:52;;;;;;;20.45;15.95;;;22.50;71.20;;;;;;5072017;28;20055;-87
2023/07/01 10:00:20;;;;;;;20.42;16.08;;;22.40;72.10;;;;;;5058994;28;20078;-87
2023/07/01 10:02:48;;;;;;;18.77;16.00;;;22.40;73.00;;;;;;5071679;28;20083;-87
2023/07/01 10:05:16;;;;;;;20.58;16.15;;;22.50;73.80;;;;;;5071769;28;20041;-87
2023/07/01 10:07:45;;;;;;;18.00;15.30;;;22.70;73.30;;;;;;5071850;28;20068;-87
2023/07/01 10:10:17;;;;;;;19.05;15.32;;;22.90;72.10;;;;;;5057503;28;20506;-87
2023/07/01 10:12:46;;;;;;;20.63;15.82;;;23.10;72.10;;;;;;5054838;28;20520;-87
2023/07/01 10:15:20;;;;;;;18.63;15.60;;;23.20;70.70;;;;;;5062293;28;20052;-87
2023/07/01 10:17:49;;;;;;;18.50;14.75;;;23.50;70.70;;;;;;5056020;28;20090;-87
2023/07/01 10:20:27;;;;;;;19.05;15.90;;;23.50;70.00;;;;;;5103609;28;20059;-87
2023/07/01 10:22:57;;;;;;;17.80;14.13;;;23.50;70.00;;;;;;5075523;28;20080;-88
2023/07/01 10:25:36;;;;;;;18.38;14.57;;;23.80;70.00;;;;;;5072317;28;20043;-88
2023/07/01 10:28:07;;;;;;;17.73;13.57;;;24.10;67.70;;;;;;5087829;28;20044;-88
2023/07/01 10:30:44;;;;;;;17.90;13.80;;;24.10;68.00;;;;;;5056081;28;20032;-88
2023/07/01 10:33:32;;;;;;;16.92;12.88;;;24.10;66.80;;;;;;5055649;28;20127;-88
2023/07/01 10:36:07;;;;;;;17.55;13.95;;;24.10;65.90;;;;;;5055379;28;20083;-88
2023/07/01 10:38:35;;;;;;;15.95;13.45;;;24.20;66.60;;;;;;5055346;28;20094;-88
2023/07/01 10:41:03;;;;;;;16.73;14.23;;;24.40;68.10;;;;;;5056417;28;20131;-88
2023/07/01 10:43:36;;;;;;;18.75;13.60;;;24.50;67.80;;;;;;5072302;28;20075;-88
2023/07/01 10:46:10;;;;;;;16.38;13.35;;;24.50;67.50;;;;;;5078263;28;20079;-87
2023/07/01 10:48:40;;;;;;;14.95;12.95;;;24.60;69.00;;;;;;5092809;28;20071;-88
2023/07/01 10:51:11;;;;;;;18.13;13.57;;;24.70;67.30;;;;;;5058108;28;20486;-88
2023/07/01 10:53:58;;;;;;;17.57;14.00;;;24.60;67.00;;;;;;5075166;28;20051;-88
2023/07/01 10:56:37;;;;;;;17.15;13.13;;;24.60;67.30;;;;;;5075729;28;20048;-87
2023/07/01 10:59:29;;;;;;;16.85;13.55;;;24.50;66.10;;;;;;5076480;28;20110;-88
2023/07/01 11:01:59;;;;;;;16.35;13.38;;;24.20;67.10;;;;;;5076243;28;20128;-88
2023/07/01 11:04:51;;;;;;;16.95;12.93;;;24.10;67.20;;;;;;5075637;28;20080;-88
2023/07/01 11:07:26;;;;;;;16.50;13.50;;;24.00;68.90;;;;;;5060340;28;20513;-88
2023/07/01 11:09:54;;;;;;;15.57;12.93;;;24.00;68.30;;;;;;5063021;28;20546;-87
2023/07/01 11:12:26;;;;;;;16.45;12.85;;;24.10;69.90;;;;;;5060094;28;20041;-87
2023/07/01 11:14:54;;;;;;;17.38;13.45;;;24.10;68.00;;;;;;5089779;28;20041;-89
2023/07/01 11:17:22;;;;;;;16.30;12.40;;;24.50;68.80;;;;;;5058790;28;20036;-88
2023/07/01 11:19:55;;;;;;;16.37;12.77;;;25.00;67.40;;;;;;5058924;28;20098;-88
2023/07/01 11:22:22;;;;;;;16.35;12.48;;;25.30;65.30;;;;;;5078402;28;20052;-88
2023/07/01 11:24:49;;;;;;;15.07;12.25;;;25.60;64.00;;;;;;5074842;28;20036;-88
2023/07/01 11:27:17;;;;;;;15.65;12.38;;;25.70;64.90;;;;;;5059524;28;20469;-88
2023/07/01 11:29:47;;;;;;;15.02;12.32;;;25.80;64.00;;;;;;5064495;28;20131;-88
2023/07/01 11:32:14;;;;;;;19.50;12.27;;;25.80;63.30;;;;;;5057243;28;20130;-88
2023/07/01 11:34:43;;;;;;;16.05;12.07;;;26.00;63.00;;;;;;5060102;28;20551;-87
2023/07/01 11:37:10;;;;;;;16.73;12.15;;;26.10;62.60;;;;;;5058800;28;20122;-88
2023/07/01 11:39:46;;;;;;;15.95;12.52;;;26.10;60.90;;;;;;5058248;28;20044;-88
2023/07/01 11:42:13;;;;;;;15.32;11.90;;;25.90;61.70;;;;;;5059892;28;20053;-88
2023/07/01 11:44:40;;;;;;;14.80;12.00;;;25.90;62.90;;;;;;5056945;28;20044;-88
2023/07/01 11:47:14;;;;;;;16.92;12.85;;;26.00;64.80;;;;;;5058023;28;20044;-88
2023/07/01 11:49:42;;;;;;;14.82;11.85;;;25.90;62.20;;;;;;5074052;28;20045;-88
2023/07/01 11:52:10;;;;;;;15.88;12.30;;;26.00;62.00;;;;;;5064915;28;20036;-88
2023/07/01 11:54:39;;;;;;;16.42;12.23;;;26.10;61.10;;;;;;5057322;28;20051;-88
2023/07/01 11:57:12;;;;;;;17.43;12.23;;;26.30;60.80;;;;;;5074119;28;20032;-88
2023/07/01 11:59:41;;;;;;;16.85;12.35;;;26.30;61.20;;;;;;5056211;28;20040;-88
2023/07/01 12:02:10;;;;;;;15.73;12.50;;;26.20;61.70;;;;;;5054208;28;20044;-88
2023/07/01 12:04:37;;;;;;;15.27;11.60;;;26.20;59.80;;;;;;5074255;28;20045;-87
2023/07/01 12:07:17;;;;;;;17.58;13.00;;;26.50;60.20;;;;;;5073952;28;20037;-87
2023/07/01 12:09:45;;;;;;;16.30;12.70;;;26.60;59.50;;;;;;5057551;28;20166;-88
2023/07/01 12:12:16;;;;;;;16.45;12.70;;;26.50;58.50;;;;;;5058143;28;20579;-88
2023/07/01 12:14:45;;;;;;;16.15;12.35;;;26.50;59.00;;;;;;5057535;28;20072;-87
2023/07/01 12:17:28;;;;;;;16.08;12.23;;;26.60;59.80;;;;;;5066024;28;20047;-88
2023/07/01 12:19:58;;;;;;;15.32;12.10;;;26.90;59.70;;;;;;5069539;28;20048;-88
2023/07/01 12:22:27;;;;;;;15.47;12.40;;;27.10;59.40;;;;;;5067067;28;20088;-88
2023/07/01 12:24:57;;;;;;;14.77;12.30;;;27.30;59.20;;;;;;5073842;28;20076;-88
2023/07/01 12:27:29;;;;;;;15.68;12.32;;;27.40;59.40;;;;;;5058184;28;20045;-88
2023/07/01 12:29:56;;;;;;;16.13;12.15;;;27.40;59.00;;;;;;5060218;28;20127;-88
2023/07/01 12:32:25;;;;;;;15.77;12.32;;;27.30;59.50;;;;;;5057237;28;20072;-88
2023/07/01 12:34:55;;;;;;;18.50;13.37;;;27.30;59.70;;;;;;5057785;28;20041;-88
2023/07/01 12:37:23;;;;;;;16.90;12.38;;;27.10;59.10;;;;;;5061842;28;20128;-88
2023/07/01 12:39:53;;;;;;;16.20;12.40;;;26.90;58.70;;;;;;5073883;28;20040;-88